Time;durP1;ratioP1;P1;durP2;ratioP2;P2;SDS_P1;SDS_P2;PMS_P1;PMS_P2;Temp;Humidity;BMP_temperature;BMP_pressure;BME280_temperature;BME280_humidity;BME280_pressure;Samples;Min_cycle;Max_cycle;Signal;HPM_P1;HPM_P2
2024/01/30 00:03:31;;;;;;;;;;;;;;;20.23;39.44;97012.72;10464665;28;2809;-64
2024/01/30 00:08:31;;;;;;;;;;;;;;;20.22;39.64;97006.63;10477859;28;2798;-64
2024/01/30 00:13:31;;;;;;;;;;;;;;;20.21;39.79;97009.53;10476492;28;2184;-64
2024/01/30 00:18:32;;;;;;;;;;;;;;;20.19;39.73;97006.31;10481874;28;2758;-64
2024/01/30 00:23:32;;;;;;;;;;;;;;;20.17;39.59;97013.66;10486655;28;1591;-64
2024/01/30 00:28:32;;;;;;;;;;;;;;;20.16;39.43;97007.56;10482986;28;1339;-64
2024/01/30 00:33:32;;;;;;;;;;;;;;;20.14;39.44;97006.22;10491952;28;1913;-64
2024/01/30 00:38:35;;;;;;;;;;;;;;;20.13;39.67;97007.25;10486730;28;2266;-64
2024/01/30 00:43:35;;;;;;;;;;;;;;;20.11;39.94;97004.06;10489068;28;1936;-65
2024/01/30 00:48:36;;;;;;;;;;;;;;;20.08;39.42;97010.63;10490981;28;1776;-65
2024/01/30 00:53:36;;;;;;;;;;;;;;;20.07;39.88;97002.97;10487527;28;1959;-63
2024/01/30 00:58:36;;;;;;;;;;;;;;;20.05;39.83;97005.81;10487141;28;2487;-64
2024/01/30 01:03:37;;;;;;;;;;;;;;;20.03;39.47;97002.63;10492054;28;1528;-65
2024/01/30 01:08:37;;;;;;;;;;;;;;;20.02;39.22;97001.03;10492041;28;1642;-65
2024/01/30 01:13:37;;;;;;;;;;;;;;;20.01;39.48;97003.91;10484105;28;2160;-65
2024/01/30 01:18:37;;;;;;;;;;;;;;;19.99;39.71;97008.63;10481305;28;2015;-64
2024/01/30 01:23:38;;;;;;;;;;;;;;;19.97;39.36;97003.59;10465591;28;2102;-65
2024/01/30 01:28:39;;;;;;;;;;;;;;;19.95;39.18;97002.22;10466858;28;2079;-64
2024/01/30 01:33:39;;;;;;;;;;;;;;;19.93;39.25;97007.72;10464206;28;2039;-64
2024/01/30 01:38:40;;;;;;;;;;;;;;;19.93;39.23;97001.66;10463911;28;2936;-64
2024/01/30 01:43:40;;;;;;;;;;;;;;;19.92;39.31;97005.34;10464652;28;2114;-65
2024/01/30 01:48:41;;;;;;;;;;;;;;;19.90;39.28;96999.53;10465703;28;2141;-65
2024/01/30 01:53:41;;;;;;;;;;;;;;;19.88;39.27;96998.97;10495614;28;2704;-65
2024/01/30 01:58:41;;;;;;;;;;;;;;;19.88;39.28;96998.97;10464521;28;2148;-65
2024/01/30 02:03:42;;;;;;;;;;;;;;;19.86;39.13;96998.41;10463497;28;2097;-65
2024/01/30 02:08:42;;;;;;;;;;;;;;;19.83;39.01;96994.41;10464413;28;2058;-65
2024/01/30 02:13:42;;;;;;;;;;;;;;;19.83;38.96;97004.13;10492010;28;2093;-65
2024/01/30 02:18:45;;;;;;;;;;;;;;;19.81;38.96;96993.06;10462472;28;2079;-69
2024/01/30 02:23:46;;;;;;;;;;;;;;;19.80;38.82;97002.00;10463177;28;2077;-65
2024/01/30 02:28:46;;;;;;;;;;;;;;;19.77;38.88;97008.53;10477323;28;2098;-65
2024/01/30 02:33:47;;;;;;;;;;;;;;;19.76;38.85;97004.31;10489950;28;2367;-65
2024/01/30 02:38:47;;;;;;;;;;;;;;;19.75;38.77;96999.25;10462260;28;3011;-65
2024/01/30 02:43:47;;;;;;;;;;;;;;;19.74;38.62;96997.69;10461810;28;2193;-64
2024/01/30 02:48:47;;;;;;;;;;;;;;;19.72;38.64;96999.75;10462638;28;1949;-64
2024/01/30 02:53:48;;;;;;;;;;;;;;;19.69;38.53;96989.69;10492702;28;2216;-64
2024/01/30 02:58:50;;;;;;;;;;;;;;;19.69;38.69;96985.25;10462023;28;2090;-64
2024/01/30 03:03:51;;;;;;;;;;;;;;;19.67;38.37;96987.31;10462482;28;2142;-64
2024/01/30 03:08:51;;;;;;;;;;;;;;;19.65;38.54;96967.53;10460709;28;2162;-64
2024/01/30 03:13:51;;;;;;;;;;;;;;;19.65;38.21;96975.41;10460530;28;2111;-64
2024/01/30 03:18:54;;;;;;;;;;;;;;;19.63;38.32;96974.88;10463965;28;2134;-63
2024/01/30 03:23:54;;;;;;;;;;;;;;;19.61;38.58;96976.94;10463532;28;1982;-65
2024/01/30 03:28:54;;;;;;;;;;;;;;;19.60;38.40;96964.84;10459288;28;2307;-64
2024/01/30 03:33:55;;;;;;;;;;;;;;;19.58;38.47;96969.53;10459069;28;2145;-65
2024/01/30 03:38:55;;;;;;;;;;;;;;;19.57;38.29;96966.09;10459145;28;2936;-63
2024/01/30 03:43:55;;;;;;;;;;;;;;;19.56;38.02;96968.97;10459718;28;2008;-66
2024/01/30 03:48:55;;;;;;;;;;;;;;;19.53;38.01;96966.81;10462068;28;2202;-65
2024/01/30 03:53:56;;;;;;;;;;;;;;;19.53;38.03;96956.28;10461136;28;2051;-64
2024/01/30 03:58:56;;;;;;;;;;;;;;;19.51;38.00;96961.78;10444906;28;2110;-66
2024/01/30 04:03:57;;;;;;;;;;;;;;;19.50;38.00;96962.81;10461011;28;2043;-67
2024/01/30 04:08:57;;;;;;;;;;;;;;;19.49;37.94;96963.88;10458827;28;2466;-65
2024/01/30 04:13:57;;;;;;;;;;;;;;;19.48;38.04;96965.69;10457754;28;2389;-66
2024/01/30 04:18:57;;;;;;;;;;;;;;;19.45;37.63;96968.00;10468026;28;2081;-65
2024/01/30 04:23:58;;;;;;;;;;;;;;;19.45;37.73;96968.00;10466794;28;2000;-66
2024/01/30 04:28:58;;;;;;;;;;;;;;;19.44;37.83;96966.41;10458124;28;2117;-66
2024/01/30 04:33:58;;;;;;;;;;;;;;;19.44;37.69;96963.75;10459150;28;2032;-64
2024/01/30 04:38:58;;;;;;;;;;;;;;;19.41;37.60;96961.63;10457916;28;2892;-66
2024/01/30 04:43:59;;;;;;;;;;;;;;;19.40;37.46;96965.28;10456039;28;2267;-66
2024/01/30 04:48:59;;;;;;;;;;;;;;;19.38;37.67;96962.88;10487092;28;2148;-66
2024/01/30 04:54:01;;;;;;;;;;;;;;;19.37;37.77;96966.53;10458691;28;2375;-66
2024/01/30 04:59:02;;;;;;;;;;;;;;;19.36;37.58;96964.97;10459491;28;2273;-66
2024/01/30 05:04:03;;;;;;;;;;;;;;;19.35;37.56;96970.47;10458338;28;2015;-67
2024/01/30 05:09:04;;;;;;;;;;;;;;;19.33;37.45;96968.03;10494682;28;2109;-66
2024/01/30 05:14:04;;;;;;;;;;;;;;;19.33;37.36;96970.66;10464406;28;2096;-66
2024/01/30 05:19:05;;;;;;;;;;;;;;;19.32;37.45;96973.50;10467708;28;2146;-64
2024/01/30 05:24:05;;;;;;;;;;;;;;;19.31;37.59;96979.78;10448480;28;2122;-64
2024/01/30 05:29:06;;;;;;;;;;;;;;;19.30;37.35;96988.72;10494249;28;2043;-66
2024/01/30 05:34:08;;;;;;;;;;;;;;;19.28;37.21;96983.72;10462584;28;2319;-66
2024/01/30 05:39:10;;;;;;;;;;;;;;;19.27;37.26;96978.66;10463738;28;2510;-66
2024/01/30 05:44:10;;;;;;;;;;;;;;;19.26;37.05;96985.78;10445551;28;2082;-67
2024/01/30 05:49:10;;;;;;;;;;;;;;;19.25;37.32;96986.78;10464724;28;2071;-66
2024/01/30 05:54:10;;;;;;;;;;;;;;;19.26;37.04;96995.50;10463573;28;2903;-66
2024/01/30 05:59:11;;;;;;;;;;;;;;;19.32;36.85;96990.09;10463908;28;2095;-66
2024/01/30 06:04:11;;;;;;;;;;;;;;;19.39;36.59;96996.03;10464404;28;2126;-67
2024/01/30 06:09:12;;;;;;;;;;;;;;;19.48;36.73;96994.63;10460172;28;2130;-66
2024/01/30 06:14:13;;;;;;;;;;;;;;;19.57;36.54;96996.84;10474241;28;2047;-77
2024/01/30 06:19:13;;;;;;;;;;;;;;;19.63;36.25;96990.66;10465401;28;2073;-67
2024/01/30 06:24:13;;;;;;;;;;;;;;;19.69;36.23;96995.75;10464121;28;2122;-67
2024/01/30 06:29:14;;;;;;;;;;;;;;;19.76;36.17;96998.25;10458653;28;2140;-68
2024/01/30 06:34:15;;;;;;;;;;;;;;;19.81;35.91;96993.06;10461293;28;2050;-68
2024/01/30 06:39:15;;;;;;;;;;;;;;;19.88;36.31;97014.75;10461743;28;3122;-66
2024/01/30 06:44:15;;;;;;;;;;;;;;;19.98;36.15;97007.03;10459394;28;2817;-68
2024/01/30 06:49:15;;;;;;;;;;;;;;;20.05;36.05;97008.44;10439642;28;1996;-66
2024/01/30 06:54:16;;;;;;;;;;;;;;;20.12;35.57;97021.44;10463353;28;2266;-66
2024/01/30 06:59:16;;;;;;;;;;;;;;;20.15;35.64;97019.13;10460969;28;2104;-66
2024/01/30 07:04:18;;;;;;;;;;;;;;;20.21;34.63;97018.22;10461505;28;2218;-66
2024/01/30 07:09:18;;;;;;;;;;;;;;;20.25;34.80;97021.16;10460094;28;2051;-69
2024/01/30 07:14:18;;;;;;;;;;;;;;;20.26;34.15;97023.56;10459765;28;2158;-66
2024/01/30 07:19:18;;;;;;;;;;;;;;;20.27;34.29;97021.72;10468060;28;1983;-66
2024/01/30 07:24:18;;;;;;;;;;;;;;;20.29;33.85;97022.28;10462873;28;2881;-66
2024/01/30 07:29:19;;;;;;;;;;;;;;;20.32;34.21;97037.56;10492869;28;2054;-66
2024/01/30 07:34:19;;;;;;;;;;;;;;;20.33;34.25;97038.38;10462548;28;2023;-66
2024/01/30 07:39:20;;;;;;;;;;;;;;;20.35;33.80;97036.31;10492154;28;2894;-66
2024/01/30 07:44:22;;;;;;;;;;;;;;;20.36;33.92;97033.44;10462376;28;2022;-66
2024/01/30 07:49:22;;;;;;;;;;;;;;;20.36;34.22;97027.38;10493745;28;2105;-66
2024/01/30 07:54:23;;;;;;;;;;;;;;;20.40;33.80;97033.75;10492344;28;2395;-66
2024/01/30 07:59:24;;;;;;;;;;;;;;;20.40;34.32;97036.41;10476604;28;2001;-66
2024/01/30 08:04:25;;;;;;;;;;;;;;;20.45;33.33;97041.72;10494787;28;2053;-66
2024/01/30 08:09:25;;;;;;;;;;;;;;;20.43;34.13;97041.97;10461729;28;2750;-66
2024/01/30 08:14:26;;;;;;;;;;;;;;;20.48;34.07;97051.78;10478185;28;2174;-66
2024/01/30 08:19:26;;;;;;;;;;;;;;;20.51;33.33;97046.03;10464533;28;2130;-66
2024/01/30 08:24:26;;;;;;;;;;;;;;;20.50;33.45;97050.50;10464579;28;2186;-66
2024/01/30 08:29:26;;;;;;;;;;;;;;;20.55;33.47;97053.22;10461335;28;2007;-66
2024/01/30 08:34:27;;;;;;;;;;;;;;;20.57;33.11;97053.75;10461360;28;2078;-66
2024/01/30 08:39:27;;;;;;;;;;;;;;;20.59;32.88;97045.59;10461106;28;2971;-66
2024/01/30 08:44:27;;;;;;;;;;;;;;;20.59;33.71;97045.59;10469915;28;2055;-66
2024/01/30 08:49:27;;;;;;;;;;;;;;;20.60;33.59;97042.75;10469574;28;2831;-65
2024/01/30 08:54:28;;;;;;;;;;;;;;;20.64;33.24;97043.84;10497573;28;2086;-65
2024/01/30 08:59:28;;;;;;;;;;;;;;;20.64;33.86;97046.50;10494209;28;2089;-65
2024/01/30 09:04:28;;;;;;;;;;;;;;;20.68;33.68;97050.25;10497321;28;2225;-65
2024/01/30 09:09:29;;;;;;;;;;;;;;;20.70;33.34;97053.44;10497968;28;2050;-65
2024/01/30 09:14:29;;;;;;;;;;;;;;;20.70;33.19;97053.44;10470178;28;2035;-65
2024/01/30 09:19:30;;;;;;;;;;;;;;;20.73;33.54;97066.09;10464774;28;2113;-65
2024/01/30 09:24:30;;;;;;;;;;;;;;;20.74;34.14;97064.28;10467484;28;2100;-65
2024/01/30 09:29:32;;;;;;;;;;;;;;;20.77;34.47;97066.44;10464737;28;2318;-67
2024/01/30 09:34:33;;;;;;;;;;;;;;;20.78;34.80;97070.66;10464189;28;2113;-65
2024/01/30 09:39:33;;;;;;;;;;;;;;;20.80;34.64;97074.63;10465728;28;2972;-64
2024/01/30 09:44:34;;;;;;;;;;;;;;;20.81;35.04;97070.94;10455519;28;2386;-64
2024/01/30 09:49:35;;;;;;;;;;;;;;;20.81;35.06;97075.44;10466765;28;2098;-65
2024/01/30 09:54:35;;;;;;;;;;;;;;;20.84;35.24;97077.59;10466082;28;2141;-64
2024/01/30 09:59:36;;;;;;;;;;;;;;;20.85;35.37;97072.09;10495598;28;2222;-66
2024/01/30 10:04:36;;;;;;;;;;;;;;;20.86;35.81;97073.66;10462438;28;2141;-65
2024/01/30 10:09:36;;;;;;;;;;;;;;;20.88;35.74;97084.75;10464683;28;2201;-63
2024/01/30 10:14:40;;;;;;;;;;;;;;;20.89;35.84;97073.19;10464484;28;2169;-65
2024/01/30 10:19:40;;;;;;;;;;;;;;;20.90;35.64;97072.13;10469691;28;2137;-65
2024/01/30 10:24:40;;;;;;;;;;;;;;;20.91;35.72;97059.75;10462815;28;2115;-65
2024/01/30 10:29:41;;;;;;;;;;;;;;;20.92;35.91;97064.78;10464136;28;2225;-65
2024/01/30 10:34:41;;;;;;;;;;;;;;;20.92;35.90;97054.25;10465539;28;2062;-65
2024/01/30 10:39:42;;;;;;;;;;;;;;;20.93;35.97;97047.13;10465138;28;2372;-64
2024/01/30 10:44:42;;;;;;;;;;;;;;;20.95;35.89;97045.06;10462956;28;2096;-64
2024/01/30 10:49:42;;;;;;;;;;;;;;;20.95;35.92;97034.50;10463369;28;2051;-64
2024/01/30 10:54:43;;;;;;;;;;;;;;;20.94;35.96;97025.81;10460887;28;2106;-65
2024/01/30 10:59:43;;;;;;;;;;;;;;;20.96;36.03;97015.00;10492395;28;2359;-63
2024/01/30 11:04:44;;;;;;;;;;;;;;;20.97;36.17;97024.53;10461857;28;2201;-64
2024/01/30 11:09:50;;;;;;;;;;;;;;;20.99;36.00;97011.88;10489230;28;2071;-66
2024/01/30 11:15:04;;;;;;;;;;;;;;;21.00;36.23;97010.84;10460476;28;2268;-63
2024/01/30 11:20:05;;;;;;;;;;;;;;;21.01;36.24;97007.16;10477528;28;2253;-64
2024/01/30 11:25:05;;;;;;;;;;;;;;;21.02;36.10;97000.88;10459558;28;2129;-65
2024/01/30 11:30:07;;;;;;;;;;;;;;;21.01;36.20;96997.44;10459809;28;2109;-65
2024/01/30 11:35:11;;;;;;;;;;;;;;;21.03;35.98;96989.28;10460330;28;2249;-65
2024/01/30 11:40:11;;;;;;;;;;;;;;;21.04;36.36;96994.31;10460360;28;2094;-65
2024/01/30 11:45:11;;;;;;;;;;;;;;;21.04;36.02;96983.78;10460224;28;2201;-65
2024/01/30 11:50:14;;;;;;;;;;;;;;;21.03;36.20;96976.91;10442109;28;2003;-64
2024/01/30 11:55:14;;;;;;;;;;;;;;;21.02;36.23;96977.94;10458106;28;2053;-65
2024/01/30 12:00:15;;;;;;;;;;;;;;;21.03;36.28;96976.91;10492205;28;2201;-65
2024/01/30 12:05:15;;;;;;;;;;;;;;;21.03;36.02;96969.00;10461188;28;2105;-65
2024/01/30 12:10:15;;;;;;;;;;;;;;;21.02;36.13;96967.41;10461661;28;2073;-65
2024/01/30 12:15:16;;;;;;;;;;;;;;;21.01;35.97;96955.25;10461997;28;2053;-65
2024/01/30 12:20:19;;;;;;;;;;;;;;;21.02;36.24;96953.41;10472912;28;2241;-65
2024/01/30 12:25:20;;;;;;;;;;;;;;;21.03;36.30;96955.03;10495917;28;2009;-65
2024/01/30 12:30:20;;;;;;;;;;;;;;;21.02;36.17;96941.03;10481479;28;2493;-63
2024/01/30 12:35:20;;;;;;;;;;;;;;;21.02;36.16;96938.41;10469263;28;2059;-63
2024/01/30 12:40:20;;;;;;;;;;;;;;;21.02;36.41;96933.13;10497259;28;2476;-64
2024/01/30 12:45:22;;;;;;;;;;;;;;;21.02;36.22;96927.88;10468092;28;2050;-65
2024/01/30 12:50:22;;;;;;;;;;;;;;;21.02;36.13;96927.88;10467831;28;2044;-65
2024/01/30 12:55:23;;;;;;;;;;;;;;;21.02;36.27;96919.16;10498056;28;2159;-64
2024/01/30 13:00:23;;;;;;;;;;;;;;;20.97;36.34;96914.63;10500106;28;2213;-64
2024/01/30 13:05:24;;;;;;;;;;;;;;;20.96;36.31;96907.72;10468850;28;2078;-64
2024/01/30 13:10:24;;;;;;;;;;;;;;;20.94;36.43;96914.28;10468724;28;2109;-66
2024/01/30 13:15:24;;;;;;;;;;;;;;;20.91;36.56;96917.44;10471281;28;2499;-66
2024/01/30 13:20:24;;;;;;;;;;;;;;;20.88;36.51;96917.91;10467425;28;2126;-65
2024/01/30 13:25:25;;;;;;;;;;;;;;;20.88;36.54;96915.28;10466663;28;2054;-65
2024/01/30 13:30:25;;;;;;;;;;;;;;;20.87;36.95;96925.06;10495549;27;2077;-68
2024/01/30 13:35:25;;;;;;;;;;;;;;;20.88;36.79;96917.91;10464084;28;2059;-66
2024/01/30 13:40:26;;;;;;;;;;;;;;;20.88;36.91;96931.91;10494786;28;2914;-66
2024/01/30 13:45:26;;;;;;;;;;;;;;;20.87;37.28;96930.31;10464397;28;2058;-64
2024/01/30 13:50:26;;;;;;;;;;;;;;;20.88;37.25;96926.63;10464600;28;2136;-66
2024/01/30 13:55:27;;;;;;;;;;;;;;;20.88;37.25;96926.63;10478869;28;2028;-64
2024/01/30 14:00:27;;;;;;;;;;;;;;;20.88;37.12;96928.47;10464708;28;2762;-65
2024/01/30 14:05:28;;;;;;;;;;;;;;;20.85;37.11;96935.03;10460947;28;1971;-65
2024/01/30 14:10:28;;;;;;;;;;;;;;;20.82;37.17;96932.09;10464715;28;2276;-65
2024/01/30 14:15:28;;;;;;;;;;;;;;;20.78;37.46;96937.06;10468250;28;2114;-66
2024/01/30 14:20:28;;;;;;;;;;;;;;;20.75;37.36;96937.53;10496069;28;1995;-67
2024/01/30 14:25:29;;;;;;;;;;;;;;;20.71;37.22;96936.44;10460929;28;2190;-64
2024/01/30 14:30:29;;;;;;;;;;;;;;;20.68;37.31;96941.41;10464249;28;1981;-65
2024/01/30 14:35:29;;;;;;;;;;;;;;;20.64;37.48;96948.22;10462027;28;2076;-66
2024/01/30 14:40:30;;;;;;;;;;;;;;;20.61;37.16;96954.75;10463090;28;3285;-67
2024/01/30 14:45:31;;;;;;;;;;;;;;;20.59;37.17;96959.47;10463070;28;2141;-67
2024/01/30 14:50:31;;;;;;;;;;;;;;;20.58;37.11;96957.91;10465145;28;2346;-66
2024/01/30 14:55:32;;;;;;;;;;;;;;;20.60;36.70;96960.28;10477351;28;1992;-66
2024/01/30 15:00:32;;;;;;;;;;;;;;;20.61;36.76;96961.88;10460678;28;2279;-66
2024/01/30 15:05:32;;;;;;;;;;;;;;;20.62;36.83;96964.28;10461449;28;2110;-66
2024/01/30 15:10:33;;;;;;;;;;;;;;;20.63;36.78;96965.84;10460948;28;2989;-66
2024/01/30 15:15:34;;;;;;;;;;;;;;;20.65;36.85;96963.75;10461699;28;1986;-65
2024/01/30 15:20:34;;;;;;;;;;;;;;;20.68;36.77;96975.66;10459911;28;2112;-66
2024/01/30 15:25:34;;;;;;;;;;;;;;;20.69;36.76;96972.78;10464461;28;2359;-66
2024/01/30 15:30:34;;;;;;;;;;;;;;;20.71;36.78;96978.59;10457280;28;2063;-65
2024/01/30 15:35:38;;;;;;;;;;;;;;;20.74;36.51;96983.38;10461166;28;2310;-65
2024/01/30 15:40:40;;;;;;;;;;;;;;;20.76;36.51;96991.84;10489787;28;2878;-66
2024/01/30 15:45:40;;;;;;;;;;;;;;;20.78;36.28;96988.97;10458204;28;2051;-66
2024/01/30 15:50:40;;;;;;;;;;;;;;;20.79;36.68;96993.97;10459148;28;2081;-66
2024/01/30 15:55:43;;;;;;;;;;;;;;;20.79;36.60;96999.25;10459301;28;2000;-64
2024/01/30 16:00:43;;;;;;;;;;;;;;;20.82;36.39;96995.34;10461034;28;2067;-64
2024/01/30 16:05:44;;;;;;;;;;;;;;;20.82;36.26;97005.88;10459625;28;2043;-65
2024/01/30 16:10:44;;;;;;;;;;;;;;;20.83;36.29;97012.75;10442702;28;2193;-64
2024/01/30 16:15:44;;;;;;;;;;;;;;;20.82;36.32;97019.84;10460234;28;2053;-66
2024/01/30 16:20:44;;;;;;;;;;;;;;;20.84;36.41;97020.41;10458360;28;2282;-65
2024/01/30 16:25:45;;;;;;;;;;;;;;;20.85;36.36;97029.91;10433420;28;2015;-66
2024/01/30 16:30:45;;;;;;;;;;;;;;;20.85;36.05;97026.47;10459880;28;2382;-65
2024/01/30 16:35:45;;;;;;;;;;;;;;;20.85;36.24;97032.56;10459522;28;2110;-66
2024/01/30 16:40:45;;;;;;;;;;;;;;;20.86;36.25;97033.34;10460801;28;2995;-65
2024/01/30 16:45:46;;;;;;;;;;;;;;;20.86;36.29;97042.03;10486143;28;2010;-65
2024/01/30 16:50:48;;;;;;;;;;;;;;;20.85;36.16;97048.38;10488388;28;1986;-65
2024/01/30 16:55:48;;;;;;;;;;;;;;;20.86;35.99;97049.94;10441554;28;2277;-68
2024/01/30 17:00:49;;;;;;;;;;;;;;;20.89;35.94;97054.75;10443582;28;2083;-66
2024/01/30 17:05:54;;;;;;;;;;;;;;;20.94;36.34;97061.91;10495976;28;2085;-67
2024/01/30 17:10:54;;;;;;;;;;;;;;;20.97;36.30;97056.97;10466173;28;2074;-67
2024/01/30 17:15:54;;;;;;;;;;;;;;;21.03;36.07;97056.00;10469252;28;2189;-67
2024/01/30 17:20:55;;;;;;;;;;;;;;;21.07;35.94;97056.31;10465716;28;2296;-67
2024/01/30 17:25:55;;;;;;;;;;;;;;;21.08;35.70;97062.38;10465860;28;2133;-68
2024/01/30 17:30:55;;;;;;;;;;;;;;;21.12;35.88;97066.13;10467436;28;2039;-68
2024/01/30 17:35:55;;;;;;;;;;;;;;;21.17;36.10;97066.16;10462664;28;2058;-66
2024/01/30 17:40:56;;;;;;;;;;;;;;;21.20;35.67;97065.69;10449481;28;3078;-72
2024/01/30 17:45:56;;;;;;;;;;;;;;;21.22;35.94;97071.53;10448715;28;2061;-71
2024/01/30 17:50:57;;;;;;;;;;;;;;;21.25;35.83;97077.09;10465178;28;2106;-63
2024/01/30 17:56:01;;;;;;;;;;;;;;;21.26;36.06;97076.06;10465561;28;2140;-72
2024/01/30 18:01:01;;;;;;;;;;;;;;;21.26;36.30;97083.16;10464766;28;2546;-68
2024/01/30 18:06:02;;;;;;;;;;;;;;;21.29;35.84;97077.41;10464950;28;2027;-69
2024/01/30 18:11:02;;;;;;;;;;;;;;;21.27;35.93;97088.19;10463391;28;2083;-68
2024/01/30 18:16:02;;;;;;;;;;;;;;;21.24;36.18;97082.63;10498659;27;2114;-70
2024/01/30 18:21:02;;;;;;;;;;;;;;;21.28;35.26;97092.44;10466063;28;1943;-77
2024/01/30 18:26:03;;;;;;;;;;;;;;;21.35;34.67;97086.97;10464134;28;2094;-74
2024/01/30 18:31:03;;;;;;;;;;;;;;;21.39;34.88;97090.72;10461819;28;2030;-73
2024/01/30 18:36:03;;;;;;;;;;;;;;;21.41;35.00;97088.63;10459919;28;2066;-76
2024/01/30 18:41:04;;;;;;;;;;;;;;;21.38;34.58;97089.13;10438265;28;3158;-73
2024/01/30 18:46:05;;;;;;;;;;;;;;;21.37;34.52;97092.81;10461146;28;2548;-72
2024/01/30 18:51:13;;;;;;;;;;;;;;;21.37;34.80;97087.53;10460069;28;2079;-67
2024/01/30 18:56:17;;;;;;;;;;;;;;;21.32;34.94;97084.81;10475632;28;1992;-69
2024/01/30 19:01:18;;;;;;;;;;;;;;;21.33;34.67;97089.06;10461228;28;2101;-69
2024/01/30 19:06:19;;;;;;;;;;;;;;;21.35;35.23;97092.25;10457780;28;2066;-68
2024/01/30 19:11:19;;;;;;;;;;;;;;;21.45;39.41;97093.16;10454533;28;2066;-68
2024/01/30 19:16:20;;;;;;;;;;;;;;;21.45;42.08;97105.56;10486773;27;2061;-68
2024/01/30 19:21:20;;;;;;;;;;;;;;;21.49;42.25;97107.47;10463914;28;2350;-68
2024/01/30 19:26:20;;;;;;;;;;;;;;;21.47;43.55;97106.91;10458917;28;2003;-68
2024/01/30 19:31:22;;;;;;;;;;;;;;;21.43;44.80;97113.69;10459620;28;2512;-67
2024/01/30 19:36:22;;;;;;;;;;;;;;;21.55;39.42;97111.75;10456321;28;3022;-69
2024/01/30 19:41:22;;;;;;;;;;;;;;;21.46;39.58;97113.22;10487853;28;2038;-67
2024/01/30 19:46:22;;;;;;;;;;;;;;;21.39;44.15;97120.50;10453135;28;2121;-67
2024/01/30 19:51:23;;;;;;;;;;;;;;;21.45;40.61;97121.38;10456449;28;2020;-66
2024/01/30 19:56:23;;;;;;;;;;;;;;;21.37;42.54;97130.50;10459598;28;2036;-68
2024/01/30 20:01:23;;;;;;;;;;;;;;;21.43;40.40;97132.16;10458028;28;2066;-67
2024/01/30 20:06:24;;;;;;;;;;;;;;;21.44;39.98;97133.78;10458979;28;2256;-67
2024/01/30 20:11:24;;;;;;;;;;;;;;;21.35;43.53;97137.09;10454792;28;2143;-67
2024/01/30 20:16:24;;;;;;;;;;;;;;;21.40;42.01;97134.50;10459322;28;1996;-67
2024/01/30 20:21:24;;;;;;;;;;;;;;;21.31;44.81;97141.25;10471257;28;1915;-66
2024/01/30 20:26:25;;;;;;;;;;;;;;;21.36;41.02;97131.56;10465923;28;2062;-67
2024/01/30 20:31:25;;;;;;;;;;;;;;;21.26;44.21;97143.81;10454347;28;2923;-65
2024/01/30 20:36:25;;;;;;;;;;;;;;;21.39;41.40;97148.75;10458638;28;2944;-65
2024/01/30 20:41:26;;;;;;;;;;;;;;;21.38;40.33;97147.13;10467192;28;2046;-63
2024/01/30 20:46:27;;;;;;;;;;;;;;;21.29;46.03;97153.91;10466371;28;2071;-62
2024/01/30 20:51:27;;;;;;;;;;;;;;;21.31;42.60;97152.59;10462759;28;2133;-63
2024/01/30 20:56:27;;;;;;;;;;;;;;;21.34;40.83;97154.75;10467455;28;2167;-63
2024/01/30 21:01:28;;;;;;;;;;;;;;;21.31;40.73;97162.38;10465517;28;2058;-64
2024/01/30 21:06:28;;;;;;;;;;;;;;;21.29;40.87;97164.44;10463319;28;2087;-62
2024/01/30 21:11:28;;;;;;;;;;;;;;;21.22;41.07;97159.34;10464998;28;2114;-63
2024/01/30 21:16:29;;;;;;;;;;;;;;;21.12;46.16;97163.69;10464946;28;2410;-64
2024/01/30 21:21:29;;;;;;;;;;;;;;;21.12;43.53;97161.03;10467852;28;2381;-63
2024/01/30 21:26:30;;;;;;;;;;;;;;;21.17;41.22;97156.63;10494283;28;2102;-63
2024/01/30 21:31:30;;;;;;;;;;;;;;;21.12;40.23;97153.94;10466341;28;2079;-64
2024/01/30 21:36:30;;;;;;;;;;;;;;;21.10;40.06;97155.22;10464747;28;3153;-64
2024/01/30 21:41:30;;;;;;;;;;;;;;;21.07;39.83;97151.22;10466495;28;2046;-64
2024/01/30 21:46:31;;;;;;;;;;;;;;;20.96;39.06;97150.25;10462930;28;2063;-64
2024/01/30 21:51:31;;;;;;;;;;;;;;;20.86;38.67;97149.28;10462040;28;2222;-64
2024/01/30 21:56:31;;;;;;;;;;;;;;;20.75;38.98;97143.06;10443398;28;2367;-65
2024/01/30 22:01:32;;;;;;;;;;;;;;;20.70;38.66;97145.66;10465538;28;2340;-65
2024/01/30 22:06:32;;;;;;;;;;;;;;;20.61;39.64;97147.06;10465782;28;2249;-64
2024/01/30 22:11:32;;;;;;;;;;;;;;;20.55;39.99;97150.69;10462188;28;2445;-64
2024/01/30 22:16:33;;;;;;;;;;;;;;;20.51;40.23;97159.28;10464114;28;2109;-65
2024/01/30 22:21:33;;;;;;;;;;;;;;;20.46;40.99;97164.50;10464158;28;2118;-65
2024/01/30 22:26:39;;;;;;;;;;;;;;;20.41;40.50;97159.94;10461310;28;2214;-65
2024/01/30 22:31:40;;;;;;;;;;;;;;;20.34;41.25;97159.28;10476573;28;2125;-64
2024/01/30 22:36:40;;;;;;;;;;;;;;;20.34;41.27;97167.16;10464764;28;2144;-65
2024/01/30 22:41:40;;;;;;;;;;;;;;;20.30;41.22;97166.06;10463721;28;2067;-65
2024/01/30 22:46:40;;;;;;;;;;;;;;;20.27;41.56;97167.34;10476985;28;2126;-64
2024/01/30 22:51:42;;;;;;;;;;;;;;;20.25;41.22;97171.25;10463346;28;2395;-65
2024/01/30 22:56:43;;;;;;;;;;;;;;;20.21;41.16;97178.84;10461463;28;2110;-64
2024/01/30 23:01:43;;;;;;;;;;;;;;;20.18;41.50;97173.19;10462133;28;2058;-64
2024/01/30 23:06:44;;;;;;;;;;;;;;;20.15;40.94;97168.41;10462258;28;2041;-64
2024/01/30 23:11:47;;;;;;;;;;;;;;;20.13;41.09;97171.25;10460760;28;2071;-64
2024/01/30 23:16:47;;;;;;;;;;;;;;;20.10;41.18;97173.56;10461539;28;1984;-64
2024/01/30 23:21:49;;;;;;;;;;;;;;;20.07;41.25;97161.66;10461130;28;2058;-64
2024/01/30 23:26:49;;;;;;;;;;;;;;;20.05;41.17;97168.22;10459875;28;1956;-65
2024/01/30 23:31:49;;;;;;;;;;;;;;;20.03;41.03;97165.03;10492534;28;2022;-64
2024/01/30 23:36:49;;;;;;;;;;;;;;;20.00;40.95;97168.94;10462019;28;2110;-64
2024/01/30 23:41:50;;;;;;;;;;;;;;;19.99;40.97;97166.53;10461234;28;2078;-65
2024/01/30 23:46:50;;;;;;;;;;;;;;;19.96;41.00;97170.44;10442923;28;2134;-64
2024/01/30 23:51:50;;;;;;;;;;;;;;;19.93;41.09;97162.19;10461074;28;2727;-63
2024/01/30 23:56:51;;;;;;;;;;;;;;;19.92;41.00;97168.50;10460513;28;2127;-64
